createdAt,value
2023-07-06T00:01:47.351Z,4.12
2023-07-06T00:04:18.650Z,3.97
2023-07-06T00:06:49.746Z,3.60
2023-07-06T00:09:18.340Z,3.85
2023-07-06T00:11:48.987Z,3.28
2023-07-06T00:14:17.550Z,3.60
2023-07-06T00:16:50.130Z,3.87
2023-07-06T00:19:19.653Z,3.62
2023-07-06T00:21:50.594Z,3.61
2023-07-06T00:24:19.389Z,3.74
2023-07-06T00:26:47.945Z,3.50
2023-07-06T00:29:19.181Z,3.98
2023-07-06T00:32:05.540Z,3.98
2023-07-06T00:34:35.999Z,3.89
2023-07-06T00:37:04.387Z,3.77
2023-07-06T00:39:32.812Z,3.92
2023-07-06T00:42:01.392Z,3.95
2023-07-06T00:44:55.667Z,3.71
2023-07-06T00:47:33.021Z,3.48
2023-07-06T00:50:09.225Z,3.57
2023-07-06T00:52:47.230Z,3.79
2023-07-06T00:55:19.782Z,3.78
2023-07-06T00:57:53.543Z,3.81
2023-07-06T01:00:23.412Z,3.84
2023-07-06T01:03:03.014Z,3.84
2023-07-06T01:05:34.697Z,3.62
2023-07-06T01:08:15.611Z,3.48
2023-07-06T01:10:45.512Z,3.65
2023-07-06T01:13:14.398Z,3.55
2023-07-06T01:15:54.977Z,3.62
2023-07-06T01:19:04.617Z,3.84
2023-07-06T01:21:53.164Z,3.92
2023-07-06T01:24:41.567Z,3.66
2023-07-06T01:27:12.749Z,4.14
2023-07-06T01:30:05.538Z,3.93
2023-07-06T01:32:46.007Z,3.87
2023-07-06T01:35:32.052Z,3.75
2023-07-06T01:38:01.244Z,3.83
2023-07-06T01:40:29.639Z,3.76
2023-07-06T01:43:00.985Z,3.70
2023-07-06T01:45:32.122Z,3.65
2023-07-06T01:48:09.041Z,3.85
2023-07-06T01:50:52.328Z,3.74
2023-07-06T01:53:33.211Z,3.57
2023-07-06T01:56:19.416Z,3.48
2023-07-06T01:59:01.770Z,3.51
2023-07-06T02:01:42.995Z,3.68
2023-07-06T02:04:13.269Z,3.26
2023-07-06T02:06:44.956Z,3.74
2023-07-06T02:09:19.948Z,3.52
2023-07-06T02:11:48.378Z,3.49
2023-07-06T02:14:16.727Z,3.44
2023-07-06T02:16:45.080Z,3.37
2023-07-06T02:19:13.932Z,3.48
2023-07-06T02:21:42.265Z,3.41
2023-07-06T02:24:13.358Z,3.35
2023-07-06T02:26:42.598Z,3.48
2023-07-06T02:29:11.676Z,3.37
2023-07-06T02:31:42.334Z,3.46
2023-07-06T02:34:10.925Z,3.34
2023-07-06T02:36:39.648Z,3.46
2023-07-06T02:39:07.609Z,3.23
2023-07-06T02:41:36.752Z,3.16
2023-07-06T02:44:04.782Z,3.36
2023-07-06T02:46:32.966Z,3.32
2023-07-06T02:49:01.097Z,3.07
2023-07-06T02:51:30.615Z,3.08
2023-07-06T02:53:58.755Z,2.95
2023-07-06T02:56:28.076Z,2.94
2023-07-06T02:58:55.966Z,3.05
2023-07-06T03:01:24.771Z,3.13
2023-07-06T03:03:52.769Z,2.90
2023-07-06T03:06:20.821Z,3.14
2023-07-06T03:08:48.928Z,2.85
2023-07-06T03:11:17.448Z,2.95
2023-07-06T03:13:45.398Z,2.94
2023-07-06T03:16:16.580Z,2.77
2023-07-06T03:18:46.529Z,2.82
2023-07-06T03:21:15.606Z,2.88
2023-07-06T03:23:43.514Z,2.66
2023-07-06T03:26:12.161Z,2.74
2023-07-06T03:28:41.115Z,2.75
2023-07-06T03:31:10.167Z,2.78
2023-07-06T03:33:39.196Z,2.68
2023-07-06T03:36:07.146Z,2.71
2023-07-06T03:38:38.024Z,2.61
2023-07-06T03:41:06.267Z,2.90
2023-07-06T03:43:35.917Z,2.63
2023-07-06T03:46:04.962Z,2.78
2023-07-06T03:48:33.053Z,2.66
2023-07-06T03:51:09.304Z,2.75
2023-07-06T03:53:37.366Z,2.63
2023-07-06T03:56:07.917Z,2.57
2023-07-06T03:58:40.031Z,2.75
2023-07-06T04:01:09.209Z,2.54
2023-07-06T04:03:37.320Z,2.80
2023-07-06T04:06:05.674Z,2.69
2023-07-06T04:08:36.843Z,2.50
2023-07-06T04:11:05.773Z,2.60
2023-07-06T04:13:34.021Z,2.62
2023-07-06T04:16:02.113Z,2.55
2023-07-06T04:18:29.971Z,2.58
2023-07-06T04:21:01.590Z,2.63
2023-07-06T04:23:29.425Z,2.70
2023-07-06T04:25:58.096Z,2.59
2023-07-06T04:28:26.141Z,2.38
2023-07-06T04:30:54.013Z,2.25
2023-07-06T04:33:22.107Z,2.54
2023-07-06T04:35:55.161Z,2.50
2023-07-06T04:38:27.801Z,2.54
2023-07-06T04:40:55.797Z,2.63
2023-07-06T04:43:25.564Z,2.54
2023-07-06T04:45:55.804Z,2.50
2023-07-06T04:48:25.892Z,2.42
2023-07-06T04:50:56.246Z,2.56
2023-07-06T04:53:24.831Z,2.42
2023-07-06T04:55:53.261Z,2.38
2023-07-06T04:58:21.284Z,2.36
2023-07-06T05:00:51.756Z,2.58
2023-07-06T05:03:19.558Z,2.19
2023-07-06T05:05:48.403Z,2.33
2023-07-06T05:08:18.510Z,2.51
2023-07-06T05:10:52.490Z,2.39
2023-07-06T05:13:22.998Z,2.70
2023-07-06T05:15:53.043Z,2.56
2023-07-06T05:18:21.736Z,2.33
2023-07-06T05:20:51.951Z,2.42
2023-07-06T05:23:21.580Z,2.52
2023-07-06T05:25:54.146Z,2.39
2023-07-06T05:28:22.445Z,2.50
2023-07-06T05:30:51.472Z,2.62
2023-07-06T05:33:19.377Z,2.67
2023-07-06T05:35:50.853Z,2.96
2023-07-06T05:38:21.019Z,2.49
2023-07-06T05:40:48.950Z,2.50
2023-07-06T05:43:19.378Z,2.55
2023-07-06T05:45:48.773Z,2.31
2023-07-06T05:48:16.941Z,2.55
2023-07-06T05:50:44.773Z,2.63
2023-07-06T05:53:13.774Z,2.74
2023-07-06T05:55:45.042Z,2.44
2023-07-06T05:58:17.875Z,2.55
2023-07-06T06:00:45.948Z,2.40
2023-07-06T06:03:13.967Z,2.57
2023-07-06T06:05:43.770Z,2.66
2023-07-06T06:08:12.111Z,2.81
2023-07-06T06:10:40.228Z,2.73
2023-07-06T06:13:08.182Z,2.77
2023-07-06T06:15:37.230Z,2.87
2023-07-06T06:18:05.833Z,2.86
2023-07-06T06:20:33.838Z,2.85
2023-07-06T06:23:02.084Z,2.56
2023-07-06T06:25:30.112Z,2.98
2023-07-06T06:27:57.861Z,2.84
2023-07-06T06:30:26.090Z,2.92
2023-07-06T06:32:54.268Z,2.94
2023-07-06T06:35:31.281Z,2.94
2023-07-06T06:37:59.536Z,2.99
2023-07-06T06:40:30.866Z,2.69
2023-07-06T06:43:01.530Z,2.70
2023-07-06T06:45:29.435Z,2.79
2023-07-06T06:47:57.619Z,2.69
2023-07-06T06:50:25.980Z,2.75
2023-07-06T06:52:54.098Z,2.73
2023-07-06T06:55:22.060Z,2.87
2023-07-06T06:57:51.727Z,2.77
2023-07-06T07:00:20.278Z,2.94
2023-07-06T07:02:48.247Z,2.58
2023-07-06T07:05:18.804Z,2.98
2023-07-06T07:07:46.724Z,2.83
2023-07-06T07:10:15.036Z,2.85
2023-07-06T07:12:45.242Z,2.51
2023-07-06T07:15:18.073Z,2.35
2023-07-06T07:17:47.034Z,2.61
2023-07-06T07:20:16.120Z,2.30
2023-07-06T07:22:45.978Z,2.35
2023-07-06T07:25:14.434Z,2.53
2023-07-06T07:27:42.396Z,2.25
2023-07-06T07:30:13.102Z,2.54
2023-07-06T07:32:43.220Z,2.46
2023-07-06T07:35:11.348Z,2.08
2023-07-06T07:37:39.813Z,2.19
2023-07-06T07:40:08.926Z,2.23
2023-07-06T07:42:37.739Z,2.12
2023-07-06T07:45:07.239Z,2.37
2023-07-06T07:47:35.257Z,2.33
2023-07-06T07:50:06.494Z,2.13
2023-07-06T07:52:35.610Z,2.25
2023-07-06T07:55:03.717Z,2.73
2023-07-06T07:57:32.025Z,2.15
2023-07-06T07:59:59.937Z,2.31
2023-07-06T08:02:29.553Z,2.02
2023-07-06T08:04:58.401Z,1.64
2023-07-06T08:07:27.725Z,1.90
2023-07-06T08:09:55.734Z,1.68
2023-07-06T08:12:23.812Z,1.76
2023-07-06T08:14:51.755Z,1.83
2023-07-06T08:17:19.794Z,1.95
2023-07-06T08:20:09.782Z,2.16
2023-07-06T08:22:37.086Z,1.88
2023-07-06T08:25:13.130Z,1.62
2023-07-06T08:27:41.271Z,1.63
2023-07-06T08:30:10.364Z,1.69
2023-07-06T08:32:41.065Z,1.82
2023-07-06T08:35:10.632Z,1.54
2023-07-06T08:37:38.787Z,1.52
2023-07-06T08:40:11.102Z,1.38
2023-07-06T08:42:42.002Z,1.67
2023-07-06T08:45:22.710Z,1.49
2023-07-06T08:47:52.773Z,1.54
2023-07-06T08:50:30.826Z,1.44
2023-07-06T08:53:01.885Z,1.55
2023-07-06T08:55:32.558Z,1.43
2023-07-06T08:58:04.896Z,1.56
2023-07-06T09:00:32.970Z,1.39
2023-07-06T09:03:17.489Z,1.65
2023-07-06T09:05:49.407Z,1.56
2023-07-06T09:08:20.368Z,1.53
2023-07-06T09:10:50.723Z,1.49
2023-07-06T09:13:25.116Z,1.35
2023-07-06T09:16:04.935Z,1.46
2023-07-06T09:18:33.026Z,1.40
2023-07-06T09:21:01.939Z,1.63
2023-07-06T09:23:32.043Z,1.58
2023-07-06T09:25:59.963Z,1.54
2023-07-06T09:28:30.753Z,1.54
2023-07-06T09:31:20.923Z,1.83
2023-07-06T09:33:54.343Z,1.90
2023-07-06T09:36:27.292Z,1.85
2023-07-06T09:39:01.600Z,1.72
2023-07-06T09:41:32.284Z,1.80
2023-07-06T09:44:06.218Z,1.58
2023-07-06T09:46:38.720Z,1.75
2023-07-06T09:49:19.539Z,1.62
2023-07-06T09:51:59.959Z,1.59
2023-07-06T09:54:58.764Z,1.79
2023-07-06T09:57:31.957Z,1.63
2023-07-06T10:00:01.837Z,1.55
2023-07-06T10:03:17.722Z,1.71
2023-07-06T10:05:59.310Z,1.71
2023-07-06T10:08:41.956Z,1.64
2023-07-06T10:11:29.760Z,1.80
2023-07-06T10:13:57.895Z,1.83
2023-07-06T10:16:48.040Z,1.78
2023-07-06T10:19:34.556Z,1.92
2023-07-06T10:22:06.135Z,1.63
2023-07-06T10:25:12.432Z,1.57
2023-07-06T10:27:56.602Z,1.58
2023-07-06T10:30:37.639Z,1.54
2023-07-06T10:33:18.386Z,1.73
2023-07-06T10:35:49.756Z,1.46
2023-07-06T10:38:18.137Z,1.73
2023-07-06T10:40:53.062Z,1.68
2023-07-06T10:43:24.949Z,1.63
2023-07-06T10:45:54.896Z,1.59
2023-07-06T10:48:38.150Z,1.69
2023-07-06T10:51:25.193Z,1.73
2023-07-06T10:54:13.001Z,1.68
2023-07-06T10:56:47.184Z,1.98
2023-07-06T10:59:32.726Z,1.94
2023-07-06T11:02:26.460Z,1.72
2023-07-06T11:05:10.088Z,1.66
2023-07-06T11:07:46.861Z,1.75
2023-07-06T11:10:14.781Z,1.75
2023-07-06T11:12:58.927Z,1.90
2023-07-06T11:15:40.143Z,1.67
2023-07-06T11:18:30.473Z,1.82
2023-07-06T11:21:00.428Z,1.52
2023-07-06T11:23:48.957Z,1.62
2023-07-06T11:26:27.225Z,1.57
2023-07-06T11:28:56.963Z,1.60
2023-07-06T11:31:30.628Z,1.86
2023-07-06T11:34:32.090Z,1.88
2023-07-06T11:37:26.175Z,1.75
2023-07-06T11:40:35.013Z,1.58
2023-07-06T11:43:06.012Z,1.56
2023-07-06T11:45:45.056Z,1.61
2023-07-06T11:48:19.609Z,1.63
2023-07-06T11:50:48.244Z,1.77
2023-07-06T11:53:45.901Z,1.89
2023-07-06T11:56:23.957Z,2.03
2023-07-06T11:58:52.702Z,1.76
2023-07-06T12:01:44.306Z,1.79
2023-07-06T12:04:21.831Z,1.83
2023-07-06T12:06:51.770Z,1.81
2023-07-06T12:09:23.823Z,1.77
2023-07-06T12:12:16.065Z,1.73
2023-07-06T12:14:44.427Z,1.79
2023-07-06T12:17:14.134Z,1.74
2023-07-06T12:19:43.133Z,2.15
2023-07-06T12:22:19.613Z,1.73
2023-07-06T12:24:47.815Z,1.72
2023-07-06T12:27:17.661Z,1.58
2023-07-06T12:29:46.887Z,1.66
2023-07-06T12:32:23.474Z,1.69
2023-07-06T12:34:54.763Z,1.62
2023-07-06T12:37:25.059Z,1.73
2023-07-06T12:39:53.242Z,1.47
2023-07-06T12:42:23.213Z,1.45
2023-07-06T12:44:53.607Z,1.37
2023-07-06T12:47:26.183Z,1.40
2023-07-06T12:49:59.541Z,1.55
2023-07-06T12:52:29.291Z,1.55
2023-07-06T12:54:57.726Z,1.49
2023-07-06T12:57:29.274Z,1.63
2023-07-06T13:00:13.833Z,1.54
2023-07-06T13:02:43.885Z,1.55
2023-07-06T13:05:29.844Z,1.71
2023-07-06T13:07:58.206Z,1.54
2023-07-06T13:10:30.922Z,1.46
2023-07-06T13:12:58.959Z,1.55
2023-07-06T13:15:38.396Z,1.57
2023-07-06T13:18:16.370Z,1.60
2023-07-06T13:20:46.943Z,1.69
2023-07-06T13:23:14.994Z,1.62
2023-07-06T13:25:45.992Z,1.47
2023-07-06T13:30:52.600Z,1.85
2023-07-06T13:33:21.621Z,1.62
2023-07-06T13:35:49.745Z,1.82
2023-07-06T13:38:18.045Z,1.37
2023-07-06T13:40:49.896Z,1.51
2023-07-06T13:43:24.720Z,1.81
2023-07-06T13:45:53.753Z,1.47
2023-07-06T13:48:21.782Z,1.65
2023-07-06T13:50:49.683Z,1.54
2023-07-06T13:53:18.751Z,1.52
2023-07-06T13:55:50.496Z,1.63
2023-07-06T13:58:25.700Z,1.86
2023-07-06T14:00:54.329Z,1.67
2023-07-06T14:03:25.978Z,1.68
2023-07-06T14:05:55.440Z,1.75
2023-07-06T14:08:26.759Z,1.52
2023-07-06T14:10:55.893Z,1.75
2023-07-06T14:13:25.313Z,1.75
2023-07-06T14:15:53.528Z,1.67
2023-07-06T14:18:22.259Z,1.56
2023-07-06T14:20:51.659Z,1.61
2023-07-06T14:23:20.915Z,1.60
2023-07-06T14:25:48.934Z,1.71
2023-07-06T14:28:19.999Z,1.66
2023-07-06T14:30:51.376Z,1.90
2023-07-06T14:33:20.687Z,1.73
2023-07-06T14:35:48.786Z,1.64
2023-07-06T14:38:16.563Z,1.73
2023-07-06T14:40:47.064Z,1.66
2023-07-06T14:43:15.711Z,1.70
2023-07-06T14:45:46.471Z,1.67
2023-07-06T14:48:15.127Z,1.71
2023-07-06T14:50:43.310Z,1.74
2023-07-06T14:53:12.595Z,1.92
2023-07-06T14:55:41.979Z,1.60
2023-07-06T14:58:10.547Z,1.60
2023-07-06T15:00:38.918Z,1.60
2023-07-06T15:03:07.045Z,1.70
2023-07-06T15:05:35.538Z,1.70
2023-07-06T15:08:04.094Z,1.58
2023-07-06T15:10:32.232Z,1.96
2023-07-06T15:13:00.224Z,1.90
2023-07-06T15:15:29.188Z,1.83
2023-07-06T15:17:57.130Z,1.89
2023-07-06T15:20:26.764Z,1.75
2023-07-06T15:22:54.760Z,1.77
2023-07-06T15:25:22.817Z,1.84
2023-07-06T15:27:50.735Z,1.98
2023-07-06T15:30:19.350Z,1.85
2023-07-06T15:32:47.167Z,1.77
2023-07-06T15:35:15.134Z,1.87
2023-07-06T15:37:43.539Z,1.90
2023-07-06T15:40:12.356Z,1.88
2023-07-06T15:42:40.419Z,1.84
2023-07-06T15:45:09.244Z,1.57
2023-07-06T15:47:44.760Z,1.87
2023-07-06T15:50:25.173Z,1.80
2023-07-06T15:52:53.298Z,1.95
2023-07-06T15:55:21.220Z,2.00
2023-07-06T15:57:49.128Z,2.07
2023-07-06T16:00:17.232Z,2.04
2023-07-06T16:02:45.094Z,2.06
2023-07-06T16:05:13.241Z,1.97
2023-07-06T16:07:41.142Z,2.03
2023-07-06T16:10:12.224Z,2.14
2023-07-06T16:12:40.332Z,2.14
2023-07-06T16:15:09.206Z,2.14
2023-07-06T16:17:37.186Z,2.21
2023-07-06T16:20:05.660Z,2.27
2023-07-06T16:22:33.908Z,2.26
2023-07-06T16:25:01.866Z,2.36
2023-07-06T16:27:30.799Z,1.99
2023-07-06T16:29:58.688Z,2.01
2023-07-06T16:32:26.549Z,2.16
2023-07-06T16:34:54.344Z,2.13
2023-07-06T16:37:23.260Z,2.28
2023-07-06T16:39:51.154Z,2.06
2023-07-06T16:42:19.172Z,2.13
2023-07-06T16:44:47.809Z,2.21
2023-07-06T16:47:15.800Z,2.31
2023-07-06T16:49:43.642Z,2.19
2023-07-06T16:52:11.898Z,2.16
2023-07-06T16:54:39.995Z,2.18
2023-07-06T16:57:07.946Z,2.05
2023-07-06T16:59:36.323Z,2.19
2023-07-06T17:02:05.993Z,2.24
2023-07-06T17:04:34.799Z,2.22
2023-07-06T17:07:02.682Z,2.48
2023-07-06T17:09:32.008Z,2.31
2023-07-06T17:12:00.860Z,2.15
2023-07-06T17:14:28.651Z,2.17
2023-07-06T17:16:56.573Z,2.32
2023-07-06T17:19:24.549Z,2.47
2023-07-06T17:21:52.291Z,2.36
2023-07-06T17:24:20.230Z,2.39
2023-07-06T17:26:48.200Z,2.54
2023-07-06T17:29:16.141Z,2.52
2023-07-06T17:31:47.588Z,2.59
2023-07-06T17:34:16.093Z,2.56
2023-07-06T17:36:44.002Z,2.72
2023-07-06T17:39:11.985Z,2.38
2023-07-06T17:41:41.452Z,2.61
2023-07-06T17:44:11.872Z,2.64
2023-07-06T17:46:40.427Z,2.45
2023-07-06T17:49:09.228Z,2.36
2023-07-06T17:51:37.265Z,2.43
2023-07-06T17:54:05.053Z,2.45
2023-07-06T17:56:32.922Z,2.37
2023-07-06T17:59:00.874Z,2.34
2023-07-06T18:01:28.979Z,2.39
2023-07-06T18:03:57.049Z,2.55
2023-07-06T18:06:25.501Z,2.62
2023-07-06T18:08:53.667Z,2.43
2023-07-06T18:11:21.451Z,2.38
2023-07-06T18:13:49.226Z,2.31
2023-07-06T18:16:17.260Z,2.50
2023-07-06T18:18:45.612Z,2.76
2023-07-06T18:21:13.345Z,2.62
2023-07-06T18:23:43.468Z,2.64
2023-07-06T18:26:13.327Z,2.78
2023-07-06T18:28:41.508Z,2.72
2023-07-06T18:31:10.665Z,3.20
2023-07-06T18:33:38.905Z,2.76
2023-07-06T18:36:07.091Z,2.49
2023-07-06T18:38:35.141Z,2.53
2023-07-06T18:41:05.252Z,2.46
2023-07-06T18:43:38.092Z,2.78
2023-07-06T18:46:06.506Z,2.94
2023-07-06T18:48:34.860Z,2.71
2023-07-06T18:51:06.006Z,2.61
2023-07-06T18:53:45.028Z,2.57
2023-07-06T18:56:13.956Z,2.77
2023-07-06T18:58:41.907Z,2.61
2023-07-06T19:01:12.470Z,2.67
2023-07-06T19:03:41.817Z,2.53
2023-07-06T19:06:17.792Z,2.54
2023-07-06T19:08:48.033Z,2.61
2023-07-06T19:11:17.618Z,2.63
2023-07-06T19:13:45.788Z,2.56
2023-07-06T19:16:15.345Z,2.82
2023-07-06T19:18:43.244Z,2.52
2023-07-06T19:21:14.042Z,2.84
2023-07-06T19:23:42.519Z,2.96
2023-07-06T19:26:11.246Z,2.74
2023-07-06T19:28:39.143Z,3.05
2023-07-06T19:31:07.187Z,3.09
2023-07-06T19:33:35.734Z,3.12
2023-07-06T19:36:06.638Z,2.98
2023-07-06T19:38:34.588Z,3.00
2023-07-06T19:41:02.478Z,3.27
2023-07-06T19:43:30.471Z,3.16
2023-07-06T19:46:19.477Z,2.89
2023-07-06T19:48:50.324Z,3.12
2023-07-06T19:51:21.427Z,2.73
2023-07-06T19:53:50.389Z,2.91
2023-07-06T19:56:20.760Z,3.03
2023-07-06T19:58:48.920Z,3.19
2023-07-06T20:01:20.490Z,3.13
2023-07-06T20:03:49.225Z,3.04
2023-07-06T20:06:17.584Z,3.57
2023-07-06T20:08:45.530Z,3.42
2023-07-06T20:11:13.576Z,3.74
2023-07-06T20:13:44.526Z,3.71
2023-07-06T20:16:13.067Z,3.51
2023-07-06T20:18:42.202Z,3.53
2023-07-06T20:21:13.137Z,3.67
2023-07-06T20:23:41.447Z,3.86
2023-07-06T20:26:10.884Z,4.07
2023-07-06T20:28:39.114Z,3.95
2023-07-06T20:31:08.931Z,4.41
2023-07-06T20:33:36.993Z,4.15
2023-07-06T20:36:08.149Z,3.90
2023-07-06T20:38:37.643Z,3.67
2023-07-06T20:41:05.856Z,3.73
2023-07-06T20:43:34.140Z,4.77
2023-07-06T20:46:02.506Z,6.13
2023-07-06T20:48:30.233Z,8.32
2023-07-06T20:50:59.108Z,8.01
2023-07-06T20:53:27.807Z,6.77
2023-07-06T20:55:56.323Z,6.37
2023-07-06T20:58:24.462Z,6.22
2023-07-06T21:00:53.733Z,6.54
2023-07-06T21:03:25.011Z,7.72
2023-07-06T21:05:53.921Z,8.60
2023-07-06T21:08:22.063Z,9.37
2023-07-06T21:10:50.048Z,10.95
2023-07-06T21:13:18.365Z,8.83
2023-07-06T21:15:46.222Z,8.50
2023-07-06T21:18:14.569Z,9.34
2023-07-06T21:20:42.692Z,9.75
2023-07-06T21:23:10.628Z,7.64
2023-07-06T21:25:38.888Z,7.88
2023-07-06T21:28:07.104Z,9.94
2023-07-06T21:30:35.001Z,11.92
2023-07-06T21:33:02.841Z,13.56
2023-07-06T21:35:30.634Z,13.62
2023-07-06T21:37:58.513Z,16.96
2023-07-06T21:40:26.241Z,23.75
2023-07-06T21:42:54.072Z,41.64
2023-07-06T21:45:21.919Z,37.50
2023-07-06T21:47:50.505Z,30.77
2023-07-06T21:50:18.425Z,28.00
2023-07-06T21:52:46.369Z,19.10
2023-07-06T21:55:14.345Z,16.04
2023-07-06T21:57:42.311Z,10.80
2023-07-06T22:00:12.827Z,10.22
2023-07-06T22:02:44.620Z,7.46
2023-07-06T22:05:12.845Z,5.70
2023-07-06T22:07:40.990Z,4.74
2023-07-06T22:10:11.311Z,4.25
2023-07-06T22:12:39.278Z,3.89
2023-07-06T22:15:11.940Z,3.99
2023-07-06T22:17:42.572Z,3.71
2023-07-06T22:20:10.636Z,3.78
2023-07-06T22:22:38.721Z,3.62
2023-07-06T22:25:07.060Z,3.55
2023-07-06T22:27:34.882Z,3.79
2023-07-06T22:30:03.947Z,3.74
2023-07-06T22:32:32.057Z,3.70
2023-07-06T22:35:00.857Z,3.79
2023-07-06T22:37:28.773Z,3.67
2023-07-06T22:39:56.722Z,3.51
2023-07-06T22:42:24.554Z,3.60
2023-07-06T22:44:52.441Z,3.93
2023-07-06T22:47:21.561Z,4.10
2023-07-06T22:49:49.574Z,4.08
2023-07-06T22:52:20.353Z,3.96
2023-07-06T22:54:48.198Z,3.72
2023-07-06T22:57:16.142Z,3.82
2023-07-06T22:59:43.898Z,4.23
2023-07-06T23:02:12.000Z,4.43
2023-07-06T23:04:40.228Z,4.16
2023-07-06T23:07:08.167Z,4.27
2023-07-06T23:09:36.123Z,4.30
2023-07-06T23:12:05.528Z,4.23
2023-07-06T23:14:33.599Z,4.24
2023-07-06T23:17:01.489Z,4.40
2023-07-06T23:19:29.275Z,4.37
2023-07-06T23:21:57.396Z,4.12
2023-07-06T23:24:29.821Z,4.11
2023-07-06T23:26:58.252Z,3.73
2023-07-06T23:29:34.205Z,4.12
2023-07-06T23:32:03.795Z,4.38
2023-07-06T23:34:32.788Z,4.22
2023-07-06T23:37:01.876Z,4.08
2023-07-06T23:39:29.936Z,3.99
2023-07-06T23:41:57.725Z,4.32
2023-07-06T23:44:25.734Z,3.92
2023-07-06T23:46:53.541Z,3.80
2023-07-06T23:49:21.421Z,4.00
2023-07-06T23:51:49.386Z,4.12
2023-07-06T23:54:22.071Z,3.90
2023-07-06T23:56:50.079Z,3.83
2023-07-06T23:59:17.938Z,3.98
